Time;durP1;ratioP1;P1;durP2;ratioP2;P2;SDS_P1;SDS_P2;PMS_P1;PMS_P2;Temp;Humidity;BMP_temperature;BMP_pressure;BME280_temperature;BME280_humidity;BME280_pressure;Samples;Min_cycle;Max_cycle;Signal;HPM_P1;HPM_P2
2022/09/09 10:59:23;;;;;;;7.20;3.80;;;34.50;98.60;;;;;;6095430;23;20025;-50
2022/09/09 11:02:19;;;;;;;11.15;4.38;;;34.80;98.60;;;;;;6095889;23;20021;-49
2022/09/09 11:04:58;;;;;;;9.98;4.05;;;;;;;;;;6045315;23;20013;-50
2022/09/09 11:07:43;;;;;;;5.88;3.30;;;35.00;97.50;;;;;;6096242;23;20007;-50
2022/09/09 11:10:43;;;;;;;10.93;3.92;;;34.90;97.30;;;;;;6096394;23;20010;-49
2022/09/09 11:13:31;;;;;;;7.65;4.35;;;34.30;97.20;;;;;;6096465;23;20014;-49
2022/09/09 11:16:19;;;;;;;9.65;3.92;;;34.80;96.90;;;;;;6074077;23;20445;-50
2022/09/09 11:18:47;;;;;;;7.90;3.88;;;35.10;97.00;;;;;;6096410;23;20061;-51
2022/09/09 11:21:25;;;;;;;9.38;3.33;;;35.10;95.80;;;;;;6095604;23;20030;-51
2022/09/09 11:24:04;;;;;;;8.98;3.80;;;34.90;95.70;;;;;;6095807;23;20006;-50
2022/09/09 11:26:41;;;;;;;9.45;3.67;;;35.00;95.80;;;;;;6022617;23;20086;-49
2022/09/09 11:29:35;;;;;;;6.00;3.83;;;34.90;96.20;;;;;;6095489;23;20038;-53
2022/09/09 11:32:09;;;;;;;5.50;3.20;;;;;;;;;;6095522;23;20006;-49
2022/09/09 11:34:35;;;;;;;12.90;3.58;;;35.60;95.20;;;;;;6094712;23;20006;-47
2022/09/09 11:37:22;;;;;;;11.75;3.63;;;35.80;95.00;;;;;;6096246;23;20006;-48
2022/09/09 11:40:23;;;;;;;7.72;4.00;;;35.40;95.30;;;;;;6096178;23;20009;-50
2022/09/09 11:43:00;;;;;;;8.70;3.78;;;35.40;93.70;;;;;;6045663;23;20312;-48
2022/09/09 11:45:29;;;;;;;8.45;3.55;;;35.90;93.80;;;;;;6096089;23;20010;-49
2022/09/09 11:48:00;;;;;;;7.43;3.70;;;35.90;93.20;;;;;;6096635;23;20319;-48
2022/09/09 11:50:25;;;;;;;;;;;35.30;92.70;;;;;;6096394;23;20042;-48
2022/09/09 11:53:08;;;;;;;7.10;3.60;;;35.80;93.70;;;;;;6095065;23;19920;-50
2022/09/09 11:55:41;;;;;;;6.90;3.22;;;35.80;92.70;;;;;;6063001;23;20094;-46
2022/09/09 11:58:10;;;;;;;6.68;3.60;;;35.40;94.10;;;;;;5993059;23;20027;-48
2022/09/09 12:00:44;;;;;;;6.78;3.28;;;35.90;93.80;;;;;;6064899;23;20006;-47
2022/09/09 12:03:46;;;;;;;10.93;4.45;;;35.90;93.10;;;;;;6063784;23;20010;-47
2022/09/09 12:06:17;;;;;;;7.75;4.10;;;35.30;93.40;;;;;;6063863;23;20387;-48
2022/09/09 12:08:48;;;;;;;7.57;3.88;;;35.30;93.60;;;;;;6063442;23;20033;-49
2022/09/09 12:11:28;;;;;;;9.02;4.22;;;35.20;93.40;;;;;;6064622;23;20640;-48
2022/09/09 12:13:55;;;;;;;8.35;4.75;;;35.20;94.00;;;;;;6038521;23;20386;-49
2022/09/09 12:16:38;;;;;;;9.82;4.63;;;34.50;93.30;;;;;;6040321;23;20370;-50
2022/09/09 12:19:21;;;;;;;7.85;3.95;;;34.10;94.00;;;;;;6063460;23;20007;-50
2022/09/09 12:21:47;;;;;;;8.75;3.53;;;34.10;94.10;;;;;;6063123;23;20007;-49
2022/09/09 12:24:38;;;;;;;8.55;3.05;;;34.50;93.90;;;;;;6064417;23;20483;-49
2022/09/09 12:27:31;;;;;;;6.75;3.60;;;35.10;94.90;;;;;;6064640;23;20015;-49
2022/09/09 12:30:07;;;;;;;6.78;4.18;;;34.90;93.20;;;;;;6062668;23;20003;-49
2022/09/09 12:32:33;;;;;;;10.32;4.25;;;34.80;93.50;;;;;;5995064;23;20023;-50
2022/09/09 12:35:21;;;;;;;10.55;3.70;;;35.40;94.20;;;;;;6039920;23;20086;-49
2022/09/09 12:37:56;;;;;;;10.63;4.07;;;35.60;93.30;;;;;;6063358;23;20010;-50
2022/09/09 12:40:32;;;;;;;9.10;4.22;;;36.00;92.70;;;;;;6064065;23;20015;-49
2022/09/09 12:43:01;;;;;;;7.30;3.50;;;36.00;92.60;;;;;;6064540;23;20466;-51
2022/09/09 12:45:31;;;;;;;8.52;4.47;;;36.20;92.50;;;;;;6064481;23;20334;-49
2022/09/09 12:48:00;;;;;;;7.03;3.90;;;;;;;;;;6016501;23;20447;-49
2022/09/09 12:50:29;;;;;;;6.88;3.92;;;35.60;94.90;;;;;;6063992;23;20022;-50
2022/09/09 12:53:28;;;;;;;10.15;4.25;;;35.50;93.50;;;;;;6064202;23;20078;-50
2022/09/09 12:56:18;;;;;;;6.28;4.00;;;35.60;92.60;;;;;;6063631;23;20022;-49
2022/09/09 12:58:48;;;;;;;6.45;3.97;;;35.40;91.90;;;;;;6064066;23;20382;-50
2022/09/09 13:01:31;;;;;;;6.75;4.68;;;35.00;92.30;;;;;;6040660;23;20127;-49
2022/09/09 13:03:56;;;;;;;10.23;4.68;;;34.60;92.10;;;;;;6063838;23;20374;-50
2022/09/09 13:06:27;;;;;;;8.82;4.00;;;;;;;;;;6064104;23;20018;-50
2022/09/09 13:08:54;;;;;;;7.15;4.60;;;33.60;92.20;;;;;;6016305;23;20050;-50
2022/09/09 13:11:26;;;;;;;7.38;4.00;;;;;;;;;;6064598;23;20342;-49
2022/09/09 13:13:55;;;;;;;7.38;4.57;;;;;;;;;;6015998;23;20019;-50
2022/09/09 13:16:32;;;;;;;6.28;3.67;;;32.00;93.20;;;;;;6064132;23;20086;-50
2022/09/09 13:19:01;;;;;;;9.15;3.60;;;31.50;94.00;;;;;;5978981;24;20448;-49
2022/09/09 13:21:34;;;;;;;5.20;3.97;;;;;;;;;;5932496;24;20012;-49
2022/09/09 13:24:03;;;;;;;5.13;3.25;;;30.90;94.50;;;;;;5954906;24;20008;-49
2022/09/09 13:26:29;;;;;;;7.40;4.35;;;30.90;95.10;;;;;;5900670;24;20009;-49
2022/09/09 13:29:17;;;;;;;6.38;3.88;;;30.80;95.10;;;;;;5924449;24;20415;-49
2022/09/09 13:31:43;;;;;;;6.07;3.20;;;30.60;95.40;;;;;;5925007;24;20058;-51
2022/09/09 13:34:35;;;;;;;7.35;4.30;;;30.40;95.40;;;;;;5879742;24;20052;-50
2022/09/09 13:37:02;;;;;;;;;;;;;;;;;;5929959;24;20009;-49
2022/09/09 13:39:28;;;;;;;8.93;5.20;;;31.30;95.70;;;;;;5952414;24;19903;-49
2022/09/09 13:41:54;;;;;;;8.20;4.78;;;31.50;96.20;;;;;;5906407;24;20005;-50
2022/09/09 13:44:34;;;;;;;10.77;5.50;;;31.30;96.00;;;;;;5929739;24;20020;-49
2022/09/09 13:47:22;;;;;;;8.90;4.75;;;31.20;96.40;;;;;;5952261;24;20047;-50
2022/09/09 13:49:48;;;;;;;8.43;5.40;;;31.10;95.90;;;;;;5991390;23;20007;-50
2022/09/09 13:52:18;;;;;;;8.88;5.97;;;31.10;99.90;;;;;;5981920;24;20012;-50
2022/09/09 13:54:54;;;;;;;10.65;6.88;;;31.00;99.90;;;;;;5982322;24;20031;-49
2022/09/09 13:57:25;;;;;;;9.30;5.20;;;30.80;98.00;;;;;;5937834;23;20015;-49
2022/09/09 13:59:52;;;;;;;7.30;6.20;;;;;;;;;;5991286;23;20432;-50
2022/09/09 14:02:18;;;;;;;7.95;5.63;;;30.60;99.90;;;;;;6038539;23;20014;-49
2022/09/09 14:04:44;;;;;;;8.63;4.93;;;30.80;99.90;;;;;;6015138;23;20011;-49
2022/09/09 14:07:12;;;;;;;7.72;5.55;;;;;;;;;;6038449;23;20155;-49
2022/09/09 14:09:39;;;;;;;8.93;5.53;;;31.50;99.90;;;;;;6038508;23;20042;-49
2022/09/09 14:12:05;;;;;;;8.73;5.43;;;31.70;97.90;;;;;;6038346;23;20007;-50
2022/09/09 14:14:30;;;;;;;12.27;5.95;;;31.50;97.80;;;;;;5990335;23;20030;-49
2022/09/09 14:16:56;;;;;;;8.90;4.70;;;31.90;97.80;;;;;;6038219;23;20015;-50
2022/09/09 14:19:22;;;;;;;7.20;5.30;;;31.50;97.80;;;;;;6038837;23;20015;-50
2022/09/09 14:21:48;;;;;;;9.02;5.70;;;;;;;;;;6038243;23;20007;-49
2022/09/09 14:24:14;;;;;;;7.93;5.63;;;30.70;97.50;;;;;;6094162;23;20010;-49
2022/09/09 14:26:40;;;;;;;13.05;6.30;;;30.60;98.20;;;;;;6048211;23;20041;-50
2022/09/09 14:29:07;;;;;;;7.15;4.93;;;30.70;99.20;;;;;;6098172;23;20010;-50
2022/09/09 14:31:32;;;;;;;7.65;5.30;;;31.20;98.70;;;;;;6099028;23;20030;-49
2022/09/09 14:33:58;;;;;;;6.38;5.00;;;31.70;98.70;;;;;;6098029;23;20439;-49
2022/09/09 14:36:25;;;;;;;9.25;5.82;;;;;;;;;;6098312;23;20081;-50
2022/09/09 14:38:51;;;;;;;6.70;5.10;;;31.90;97.50;;;;;;6098643;23;20326;-49
2022/09/09 14:41:22;;;;;;;8.93;4.88;;;32.30;97.70;;;;;;6098155;23;20093;-50
2022/09/09 15:03:41;;;;;;;9.48;5.03;;;32.50;96.30;;;;;;5063706;28;20389;-49
2022/09/09 15:06:12;;;;;;;7.32;5.15;;;32.20;97.00;;;;;;5043439;28;20484;-49
2022/09/09 15:08:39;;;;;;;7.53;4.93;;;31.80;97.50;;;;;;5043172;28;20093;-48
2022/09/09 15:11:09;;;;;;;9.85;5.10;;;31.60;97.40;;;;;;5050538;28;20108;-49
2022/09/09 15:13:39;;;;;;;8.02;4.70;;;31.70;97.40;;;;;;5047659;28;20063;-49
2022/09/09 15:16:07;;;;;;;8.75;4.60;;;31.80;97.40;;;;;;5050063;28;20083;-49
2022/09/09 15:18:33;;;;;;;25.10;8.13;;;31.40;97.50;;;;;;5049509;28;20040;-49
2022/09/09 15:21:01;;;;;;;21.83;8.27;;;31.70;97.90;;;;;;4984337;28;20038;-49
2022/09/09 15:23:27;;;;;;;19.50;7.53;;;31.80;97.80;;;;;;5046596;28;20108;-49
2022/09/09 15:25:54;;;;;;;16.50;6.82;;;31.70;97.90;;;;;;5049433;28;20029;-49
2022/09/09 15:28:21;;;;;;;11.63;5.25;;;31.70;98.10;;;;;;5048205;28;20033;-49
2022/09/09 15:30:51;;;;;;;20.55;7.00;;;31.60;98.00;;;;;;5049271;28;20403;-49
2022/09/09 15:33:18;;;;;;;9.88;5.43;;;;;;;;;;5049382;28;20087;-49
2022/09/09 15:35:44;;;;;;;14.85;4.60;;;31.10;97.90;;;;;;5049000;28;20047;-50
2022/09/09 15:38:10;;;;;;;10.38;5.20;;;31.30;99.20;;;;;;5049835;28;20120;-49
2022/09/09 15:40:36;;;;;;;13.80;6.40;;;31.30;98.80;;;;;;5049437;28;20021;-49
2022/09/09 15:43:03;;;;;;;13.23;7.15;;;31.00;98.70;;;;;;5049340;28;20052;-49
2022/09/09 15:45:32;;;;;;;10.85;5.57;;;30.90;99.90;;;;;;5030785;28;20088;-49
2022/09/09 15:47:58;;;;;;;14.23;6.40;;;;;;;;;;5025181;28;20041;-50
2022/09/09 15:50:24;;;;;;;10.55;5.13;;;30.60;99.80;;;;;;5048558;28;20047;-49
2022/09/09 15:52:52;;;;;;;12.50;5.60;;;;;;;;;;5047819;28;20116;-49
2022/09/09 15:55:19;;;;;;;13.75;6.45;;;;;;;;;;5025311;28;20041;-50
2022/09/09 15:57:46;;;;;;;10.90;6.90;;;;;;;;;;5048731;28;20056;-49
2022/09/09 16:00:13;;;;;;;9.63;5.97;;;;;;;;;;5048326;28;20025;-49
2022/09/09 16:02:39;;;;;;;12.98;6.60;;;;;;;;;;5010770;28;20120;-49
2022/09/09 16:05:06;;;;;;;15.45;7.93;;;;;;;;;;5035466;28;20079;-49
2022/09/09 16:07:32;;;;;;;11.43;6.57;;;29.10;99.90;;;;;;5017476;28;20065;-49
2022/09/09 16:09:58;;;;;;;8.13;5.80;;;;;;;;;;5035393;28;20111;-49
2022/09/09 16:12:24;;;;;;;10.98;6.53;;;28.80;99.90;;;;;;5016790;28;20080;-49
2022/09/09 16:14:49;;;;;;;10.88;6.20;;;28.80;99.90;;;;;;5035111;28;20111;-49
2022/09/09 16:17:16;;;;;;;9.45;6.03;;;;;;;;;;5032125;28;20040;-49
2022/09/09 16:19:41;;;;;;;10.18;5.72;;;28.70;99.90;;;;;;5035291;28;20052;-49
2022/09/09 16:22:08;;;;;;;15.38;7.45;;;;;;;;;;5035073;28;20116;-49
2022/09/09 16:24:34;;;;;;;18.02;6.97;;;;;;;;;;5016823;28;20087;-49
2022/09/09 16:27:00;;;;;;;16.13;7.22;;;;;;;;;;5031404;28;20103;-49
2022/09/09 16:29:27;;;;;;;14.18;6.60;;;;;;;;;;5033042;28;20033;-49
2022/09/09 16:31:53;;;;;;;9.70;6.95;;;;;;;;;;5034736;28;20116;-49
2022/09/09 16:34:20;;;;;;;12.77;6.63;;;;;;;;;;5035285;28;20068;-49
2022/09/09 16:36:46;;;;;;;9.00;7.05;;;;;;;;;;5032837;28;20029;-50
2022/09/09 16:39:15;;;;;;;12.65;7.20;;;28.00;99.90;;;;;;5013305;28;20057;-49
2022/09/09 16:41:43;;;;;;;10.05;7.65;;;28.00;99.90;;;;;;4980123;28;20516;-49
2022/09/09 16:44:10;;;;;;;176.05;107.30;;;27.50;99.90;;;;;;5012583;28;20439;-49
2022/09/09 16:46:39;;;;;;;135.40;89.68;;;27.90;99.90;;;;;;5012569;28;20489;-49
2022/09/09 16:49:06;;;;;;;123.25;83.43;;;;;;;;;;5012763;28;20572;-49
2022/09/09 16:51:35;;;;;;;55.38;38.88;;;27.80;99.90;;;;;;5012681;28;20073;-50
2022/09/09 16:54:02;;;;;;;29.60;19.35;;;;;;;;;;5012416;28;20042;-49
2022/09/09 16:56:32;;;;;;;18.88;14.90;;;27.70;99.90;;;;;;4979851;28;20042;-49
2022/09/09 16:59:00;;;;;;;15.52;9.77;;;;;;;;;;5013076;28;20049;-49
2022/09/09 17:01:32;;;;;;;12.60;9.00;;;27.30;99.90;;;;;;5010675;28;20034;-49
2022/09/09 17:04:00;;;;;;;12.35;8.90;;;;;;;;;;5009639;28;20080;-49
2022/09/09 17:06:27;;;;;;;14.57;8.13;;;;;;;;;;5010973;28;20080;-49
2022/09/09 17:08:58;;;;;;;11.75;7.68;;;;;;;;;;5010950;28;20045;-50
2022/09/09 17:11:25;;;;;;;10.32;7.43;;;;;;;;;;5033286;28;20064;-49
2022/09/09 17:13:52;;;;;;;19.65;7.95;;;;;;;;;;5033476;28;20026;-49
2022/09/09 17:16:21;;;;;;;17.60;7.85;;;;;;;;;;5032073;28;20056;-49
2022/09/09 17:18:47;;;;;;;15.48;8.20;;;;;;;;;;5032917;28;20040;-49
2022/09/09 17:21:14;;;;;;;13.27;8.15;;;;;;;;;;5033343;28;20531;-49
2022/09/09 17:23:40;;;;;;;12.32;8.25;;;;;;;;;;5032875;28;20074;-49
2022/09/09 17:26:09;;;;;;;13.68;7.57;;;;;;;;;;5032554;28;20543;-50
2022/09/09 17:28:39;;;;;;;13.55;8.77;;;;;;;;;;5031528;28;20033;-49
2022/09/09 17:31:06;;;;;;;15.35;10.55;;;;;;;;;;5033367;28;20112;-49
2022/09/09 17:33:37;;;;;;;14.68;10.73;;;;;;;;;;5032568;28;20038;-49
2022/09/09 17:36:08;;;;;;;14.55;9.30;;;;;;;;;;5031865;28;20022;-50
2022/09/09 17:38:34;;;;;;;14.88;9.52;;;;;;;;;;5024733;28;20072;-49
2022/09/09 17:41:07;;;;;;;20.90;11.35;;;;;;;;;;5030319;28;20384;-49
2022/09/09 17:43:35;;;;;;;15.82;10.73;;;;;;;;;;5009656;28;20037;-49
2022/09/09 17:46:09;;;;;;;19.38;13.70;;;;;;;;;;5010938;28;20042;-49
2022/09/09 17:48:36;;;;;;;14.98;12.18;;;;;;;;;;5010240;28;20038;-49
2022/09/09 17:51:04;;;;;;;18.17;13.43;;;;;;;;;;5009992;28;20041;-50
2022/09/09 17:53:50;;;;;;;17.10;12.18;;;;;;;;;;5008772;28;20141;-50
2022/09/09 17:56:19;;;;;;;15.65;11.02;;;;;;;;;;4971573;28;20508;-49
2022/09/09 17:58:45;;;;;;;15.75;11.15;;;;;;;;;;4968085;28;20079;-49
2022/09/09 18:01:13;;;;;;;17.50;10.30;;;;;;;;;;4967556;28;20038;-50
2022/09/09 18:03:40;;;;;;;14.80;11.00;;;;;;;;;;4963890;28;20454;-50
2022/09/09 18:06:10;;;;;;;15.00;10.60;;;;;;;;;;4963572;28;20074;-50
2022/09/09 18:08:37;;;;;;;24.60;14.32;;;;;;;;;;4966561;28;20117;-49
2022/09/09 18:11:03;;;;;;;22.40;12.05;;;;;;;;;;4966457;28;20035;-49
2022/09/09 18:13:30;;;;;;;16.08;10.93;;;;;;;;;;4967962;28;20077;-49
2022/09/09 18:15:56;;;;;;;15.40;11.00;;;;;;;;;;4989969;28;20070;-50
2022/09/09 18:18:23;;;;;;;18.23;13.50;;;;;;;;;;4989920;28;20188;-50
2022/09/09 18:21:01;;;;;;;27.77;17.55;;;;;;;;;;4990767;28;20029;-49
2022/09/09 18:23:28;;;;;;;21.63;14.88;;;26.00;99.90;;;;;;4989091;28;20385;-49
2022/09/09 18:25:55;;;;;;;28.55;16.00;;;25.90;99.90;;;;;;4986141;28;20030;-49
2022/09/09 18:28:22;;;;;;;25.05;16.05;;;25.90;99.90;;;;;;5027323;28;20560;-49
2022/09/09 18:30:48;;;;;;;21.85;15.50;;;25.90;99.90;;;;;;5013127;28;20041;-49
2022/09/09 18:33:14;;;;;;;19.60;13.73;;;26.00;99.90;;;;;;5031163;28;20049;-49
2022/09/09 18:35:40;;;;;;;16.55;11.70;;;;;;;;;;5032661;28;20094;-49
2022/09/09 18:38:06;;;;;;;14.32;9.98;;;25.70;99.90;;;;;;5033101;28;20060;-50
2022/09/09 18:40:32;;;;;;;9.65;7.45;;;25.10;99.90;;;;;;5031571;28;20067;-49
2022/09/09 18:42:58;;;;;;;13.38;6.97;;;24.60;99.90;;;;;;4979403;28;20034;-49
2022/09/09 18:45:24;;;;;;;17.95;7.85;;;;;;;;;;5014885;28;20432;-49
2022/09/09 18:47:50;;;;;;;8.50;5.03;;;23.90;99.90;;;;;;5032523;28;20029;-49
2022/09/09 18:50:16;;;;;;;11.95;5.38;;;;;;;;;;5032778;28;20471;-49
2022/09/09 18:52:42;;;;;;;14.95;6.43;;;22.90;99.90;;;;;;5033156;28;20533;-49
2022/09/09 18:55:08;;;;;;;8.65;4.25;;;;;;;;;;5032816;28;20029;-49
2022/09/09 18:57:34;;;;;;;9.27;3.63;;;22.30;99.90;;;;;;5032355;28;20041;-50
2022/09/09 19:00:00;;;;;;;9.75;3.38;;;22.10;99.90;;;;;;5032575;28;20087;-49
2022/09/09 19:02:26;;;;;;;8.88;3.75;;;22.00;99.90;;;;;;5014671;28;20049;-49
2022/09/09 19:04:52;;;;;;;7.05;3.65;;;22.10;99.90;;;;;;5032632;28;20057;-50
2022/09/09 19:07:19;;;;;;;5.03;3.45;;;21.90;99.90;;;;;;5032643;28;20029;-49
2022/09/09 19:09:45;;;;;;;4.53;3.20;;;22.10;99.90;;;;;;5032410;28;20080;-49
2022/09/09 19:12:11;;;;;;;6.22;3.40;;;22.00;99.90;;;;;;5014083;28;20045;-49
2022/09/09 19:14:37;;;;;;;8.90;4.45;;;22.10;99.90;;;;;;5032521;28;20032;-50
2022/09/09 19:17:03;;;;;;;6.05;3.85;;;22.10;99.90;;;;;;5014175;28;20041;-49
2022/09/09 19:19:31;;;;;;;5.72;3.47;;;22.00;99.90;;;;;;5032908;28;20089;-49
2022/09/09 19:21:57;;;;;;;11.35;3.75;;;22.00;99.90;;;;;;5032399;28;20060;-49
2022/09/09 19:24:27;;;;;;;5.07;3.05;;;22.20;99.90;;;;;;5004751;28;20033;-49
2022/09/09 19:26:56;;;;;;;4.30;2.45;;;22.30;99.90;;;;;;5032598;28;20041;-50
2022/09/09 19:29:27;;;;;;;4.72;2.75;;;22.40;99.90;;;;;;5032244;28;20384;-50
2022/09/09 19:31:56;;;;;;;6.15;2.88;;;22.20;99.90;;;;;;5032209;28;20060;-50
2022/09/09 19:34:22;;;;;;;5.10;2.38;;;22.30;99.90;;;;;;5030768;28;20044;-50
2022/09/09 19:36:48;;;;;;;4.65;2.65;;;22.30;99.90;;;;;;5032458;28;20022;-50
2022/09/09 19:39:15;;;;;;;5.32;2.60;;;22.40;99.90;;;;;;5016293;28;20057;-50
2022/09/09 19:41:41;;;;;;;3.47;2.10;;;22.40;99.90;;;;;;5035829;28;20124;-49
2022/09/09 19:44:10;;;;;;;2.58;1.73;;;22.40;99.90;;;;;;5037074;28;20427;-49
2022/09/09 19:46:37;;;;;;;3.15;1.80;;;22.40;99.90;;;;;;5035515;28;20037;-50
2022/09/09 19:49:05;;;;;;;4.03;1.75;;;22.40;99.90;;;;;;5013873;28;20041;-50
2022/09/09 19:51:35;;;;;;;1.80;1.00;;;22.30;99.90;;;;;;5014242;28;20072;-49
2022/09/09 19:54:07;;;;;;;7.55;2.45;;;22.00;99.90;;;;;;4981505;28;20049;-50
2022/09/09 19:56:35;;;;;;;7.97;2.10;;;21.90;99.90;;;;;;5013784;28;20026;-50
2022/09/09 19:59:01;;;;;;;10.35;3.50;;;21.90;99.90;;;;;;5012518;28;20086;-50
2022/09/09 20:01:30;;;;;;;3.47;1.75;;;21.70;99.90;;;;;;4980755;28;20132;-49
2022/09/09 20:03:59;;;;;;;11.18;3.50;;;22.10;99.90;;;;;;5013490;28;20596;-49
2022/09/09 20:06:27;;;;;;;5.35;2.45;;;22.00;99.90;;;;;;5010958;28;20034;-49
2022/09/09 20:08:54;;;;;;;4.10;2.60;;;22.00;99.90;;;;;;4980821;28;20042;-50
2022/09/09 20:11:21;;;;;;;5.07;2.60;;;22.10;99.90;;;;;;5013325;28;20046;-50
2022/09/09 20:13:48;;;;;;;8.45;3.70;;;22.10;99.90;;;;;;5013410;28;20096;-49
2022/09/09 20:16:18;;;;;;;5.72;2.95;;;;;;;;;;5009257;28;20516;-50
2022/09/09 20:18:49;;;;;;;9.25;3.33;;;21.70;99.90;;;;;;5013096;28;20441;-49
2022/09/09 20:21:19;;;;;;;6.63;2.53;;;21.70;99.90;;;;;;5035861;28;20343;-50
2022/09/09 20:23:48;;;;;;;9.93;2.53;;;21.60;99.90;;;;;;5035008;28;20511;-49
2022/09/09 20:26:19;;;;;;;9.63;3.03;;;21.80;99.90;;;;;;5017467;28;20471;-50
2022/09/09 20:28:48;;;;;;;8.07;3.10;;;21.80;99.90;;;;;;5035148;28;20036;-49
2022/09/09 20:31:18;;;;;;;10.02;2.60;;;22.00;99.90;;;;;;5035062;28;20033;-49
2022/09/09 20:33:45;;;;;;;3.97;2.50;;;21.80;99.90;;;;;;5034812;28;20044;-49
2022/09/09 20:36:16;;;;;;;3.60;2.17;;;21.50;99.90;;;;;;5032643;28;20064;-49
2022/09/09 20:38:47;;;;;;;;;;;21.20;99.90;;;;;;5033335;28;20072;-50
2022/09/09 20:41:17;;;;;;;4.10;2.20;;;20.90;99.90;;;;;;5034741;28;19908;-50
2022/09/09 20:43:52;;;;;;;3.80;2.42;;;20.80;99.90;;;;;;5034574;28;20056;-50
2022/09/09 20:46:19;;;;;;;4.63;2.20;;;20.90;99.90;;;;;;5034632;28;20040;-49
2022/09/09 20:48:46;;;;;;;3.95;2.75;;;20.70;99.90;;;;;;5035009;28;20073;-49
2022/09/09 20:51:15;;;;;;;4.40;2.83;;;20.80;99.90;;;;;;5035293;28;20037;-49
2022/09/09 20:53:41;;;;;;;7.30;3.45;;;21.10;99.90;;;;;;5032233;28;20048;-49
2022/09/09 20:56:08;;;;;;;5.53;3.17;;;21.40;99.90;;;;;;5032337;28;20045;-49
2022/09/09 20:58:34;;;;;;;5.18;2.75;;;21.50;99.90;;;;;;4989347;28;20048;-49
2022/09/09 21:01:01;;;;;;;5.97;2.80;;;21.70;99.90;;;;;;5032970;28;20060;-49
2022/09/09 21:03:30;;;;;;;6.00;2.75;;;21.70;99.90;;;;;;5032047;28;20050;-51
2022/09/09 21:05:59;;;;;;;3.72;2.75;;;21.80;99.90;;;;;;5032180;28;20033;-49
2022/09/09 21:08:28;;;;;;;4.05;3.30;;;21.80;99.90;;;;;;5032139;28;20080;-49
2022/09/09 21:10:55;;;;;;;4.35;3.00;;;;;;;;;;5032082;28;20528;-49
2022/09/09 21:13:22;;;;;;;6.95;3.08;;;22.00;99.90;;;;;;5032696;28;20065;-49
2022/09/09 21:15:49;;;;;;;4.05;3.22;;;22.00;99.90;;;;;;5031874;28;20033;-49
2022/09/09 21:18:16;;;;;;;5.50;2.85;;;22.00;99.90;;;;;;5031846;28;20045;-50
2022/09/09 21:20:42;;;;;;;4.68;2.83;;;;;;;;;;5032480;28;20141;-50
2022/09/09 21:23:09;;;;;;;6.70;2.88;;;22.10;99.90;;;;;;4993384;28;20065;-49
2022/09/09 21:25:36;;;;;;;3.38;2.35;;;22.10;99.90;;;;;;5033446;28;20116;-49
2022/09/09 21:28:04;;;;;;;6.88;2.78;;;22.10;99.90;;;;;;5004829;28;20030;-49
2022/09/09 21:30:32;;;;;;;4.25;3.00;;;22.10;99.90;;;;;;5034108;28;20374;-49
2022/09/09 21:32:58;;;;;;;7.93;2.75;;;22.10;99.90;;;;;;5034078;28;20047;-50
2022/09/09 21:35:24;;;;;;;4.15;2.72;;;22.20;99.90;;;;;;5032058;28;20045;-50
2022/09/09 21:37:50;;;;;;;5.25;2.80;;;22.10;99.90;;;;;;5024934;28;20508;-50
2022/09/09 21:40:16;;;;;;;3.10;2.10;;;21.70;99.90;;;;;;4999086;28;20034;-50
2022/09/09 21:42:43;;;;;;;6.38;3.00;;;21.40;99.90;;;;;;5034082;28;20083;-50
2022/09/09 21:45:09;;;;;;;5.57;2.30;;;21.30;99.90;;;;;;5033662;28;20041;-50
2022/09/09 21:47:34;;;;;;;5.70;2.75;;;21.10;99.90;;;;;;5015603;28;20128;-49
2022/09/09 21:50:01;;;;;;;3.67;2.65;;;21.10;99.90;;;;;;5015843;28;20596;-49
2022/09/09 21:52:27;;;;;;;5.63;3.45;;;21.40;99.90;;;;;;5033352;28;20041;-50
2022/09/09 21:54:54;;;;;;;5.75;3.60;;;21.60;99.90;;;;;;5032172;28;20520;-49
2022/09/09 21:57:20;;;;;;;4.93;4.00;;;21.60;99.90;;;;;;5033401;28;20053;-50
2022/09/09 21:59:46;;;;;;;9.10;4.18;;;21.60;99.90;;;;;;5033845;28;20076;-50
2022/09/09 22:02:12;;;;;;;5.15;4.60;;;21.70;99.90;;;;;;5002473;28;20057;-50
2022/09/09 22:04:39;;;;;;;7.90;4.68;;;21.80;99.90;;;;;;4434911;29;1291571;-49
2022/09/09 22:07:05;;;;;;;5.97;3.30;;;21.90;99.90;;;;;;4897493;28;1198527;-49
2022/09/09 22:09:32;;;;;;;4.88;3.97;;;22.00;99.90;;;;;;4994227;28;20057;-49
2022/09/09 22:11:58;;;;;;;5.43;4.05;;;21.90;99.90;;;;;;5013612;28;20478;-49
2022/09/09 22:14:24;;;;;;;8.98;3.70;;;21.80;99.90;;;;;;5013300;28;20041;-49
2022/09/09 22:16:50;;;;;;;4.00;3.10;;;21.80;99.90;;;;;;5013298;28;20167;-49
2022/09/09 22:19:16;;;;;;;6.20;3.47;;;21.90;99.90;;;;;;5012294;28;20042;-49
2022/09/09 22:21:42;;;;;;;6.47;3.97;;;22.00;99.90;;;;;;4995113;28;20492;-49
2022/09/09 22:24:08;;;;;;;4.15;3.20;;;22.10;99.90;;;;;;4995079;28;20046;-50
2022/09/09 22:26:35;;;;;;;3.63;3.00;;;22.10;99.90;;;;;;5013253;28;20030;-50
2022/09/09 22:29:03;;;;;;;4.25;3.08;;;22.00;99.90;;;;;;5013318;28;20030;-50
2022/09/09 22:31:31;;;;;;;4.20;2.95;;;22.10;99.90;;;;;;5014055;28;20044;-50
2022/09/09 22:33:57;;;;;;;3.53;2.67;;;22.10;99.90;;;;;;5013211;28;20045;-49
2022/09/09 22:36:24;;;;;;;7.80;3.08;;;;;;;;;;5013081;28;20485;-49
2022/09/09 22:38:50;;;;;;;6.03;2.85;;;22.20;99.90;;;;;;5013226;28;20373;-49
2022/09/09 22:41:17;;;;;;;4.80;2.90;;;22.20;99.90;;;;;;5013577;28;20040;-49
2022/09/09 22:43:44;;;;;;;5.05;2.90;;;22.10;99.90;;;;;;5013290;28;20052;-49
2022/09/09 22:46:10;;;;;;;4.22;3.15;;;22.10;99.90;;;;;;5012991;28;20038;-49
2022/09/09 22:48:37;;;;;;;3.50;2.90;;;21.90;99.90;;;;;;5013264;28;20037;-50
2022/09/09 22:51:09;;;;;;;5.47;3.70;;;22.00;99.90;;;;;;5013459;28;20026;-49
2022/09/09 22:53:35;;;;;;;;;;;22.10;99.90;;;;;;5013829;28;20038;-50
2022/09/09 22:56:04;;;;;;;3.47;2.95;;;22.10;99.90;;;;;;5013833;28;20304;-49
2022/09/09 22:58:32;;;;;;;4.90;3.13;;;22.20;99.90;;;;;;5011199;28;20042;-50
2022/09/09 23:00:59;;;;;;;3.92;3.17;;;22.20;99.90;;;;;;5012689;28;20037;-49
2022/09/09 23:03:30;;;;;;;4.68;3.33;;;22.20;99.90;;;;;;5013725;28;20076;-49
2022/09/09 23:05:57;;;;;;;4.55;3.40;;;22.20;99.90;;;;;;5012807;28;20034;-49
2022/09/09 23:08:35;;;;;;;6.80;3.33;;;22.20;99.90;;;;;;5012368;28;20551;-50
2022/09/09 23:11:08;;;;;;;6.00;3.47;;;22.20;99.90;;;;;;5012396;28;20169;-49
2022/09/09 23:13:42;;;;;;;5.15;3.20;;;22.20;99.90;;;;;;5014828;28;20041;-49
2022/09/09 23:16:09;;;;;;;5.13;3.70;;;22.20;99.90;;;;;;5014889;28;20440;-50
2022/09/09 23:18:35;;;;;;;5.60;3.38;;;22.20;99.90;;;;;;5017392;28;20381;-49
2022/09/09 23:21:02;;;;;;;4.22;3.10;;;22.20;99.90;;;;;;5016518;28;20111;-50
2022/09/09 23:23:28;;;;;;;7.82;3.42;;;22.10;99.90;;;;;;5016410;28;20528;-50
2022/09/09 23:25:54;;;;;;;4.25;3.85;;;22.10;99.90;;;;;;5016371;28;20034;-50
2022/09/09 23:28:19;;;;;;;8.55;3.92;;;22.10;99.90;;;;;;5017270;28;20038;-49
2022/09/09 23:30:45;;;;;;;4.95;3.35;;;22.10;99.90;;;;;;4965679;28;20042;-50
2022/09/09 23:33:12;;;;;;;4.97;3.53;;;22.10;99.90;;;;;;5016272;28;20064;-49
2022/09/09 23:35:38;;;;;;;5.13;4.20;;;22.10;99.90;;;;;;5016898;28;20042;-51
2022/09/09 23:38:04;;;;;;;7.22;4.15;;;22.10;99.90;;;;;;5016107;28;20025;-50
2022/09/09 23:40:30;;;;;;;10.70;4.35;;;22.10;99.90;;;;;;5016735;28;20117;-49
2022/09/09 23:42:56;;;;;;;5.35;3.85;;;22.20;99.90;;;;;;5016207;28;20037;-49
2022/09/09 23:45:22;;;;;;;5.93;3.40;;;22.20;99.90;;;;;;5016603;28;20528;-49
2022/09/09 23:47:48;;;;;;;4.95;4.00;;;22.10;99.90;;;;;;5016521;28;20033;-50
2022/09/09 23:50:14;;;;;;;8.60;3.90;;;22.10;99.90;;;;;;5016635;28;20021;-50
2022/09/09 23:52:42;;;;;;;6.15;3.90;;;21.70;99.90;;;;;;4997609;28;20061;-49
2022/09/09 23:55:09;;;;;;;7.28;5.90;;;21.50;99.90;;;;;;5016083;28;20060;-49
2022/09/09 23:57:35;;;;;;;8.77;5.72;;;21.30;99.90;;;;;;5016070;28;20026;-49
